createdAt,value
2018-09-02T00:00:02.582Z,17.40
2018-09-02T00:01:02.516Z,20.20
2018-09-02T00:02:02.454Z,17.00
2018-09-02T00:03:02.397Z,16.50
2018-09-02T00:04:02.331Z,18.00
2018-09-02T00:05:02.272Z,18.00
2018-09-02T00:06:02.204Z,17.10
2018-09-02T00:07:02.141Z,17.80
2018-09-02T00:08:02.090Z,19.10
2018-09-02T00:09:02.024Z,16.70
2018-09-02T00:10:01.961Z,20.30
2018-09-02T00:11:01.890Z,19.70
2018-09-02T00:12:01.838Z,19.20
2018-09-02T00:13:01.772Z,18.70
2018-09-02T00:14:01.709Z,17.30
2018-09-02T00:15:01.646Z,16.20
2018-09-02T00:16:01.583Z,17.90
2018-09-02T00:17:01.520Z,18.30
2018-09-02T00:18:01.469Z,17.80
2018-09-02T00:19:01.399Z,18.00
2018-09-02T00:20:01.335Z,18.40
2018-09-02T00:21:01.273Z,17.00
2018-09-02T00:22:01.212Z,19.60
2018-09-02T00:23:01.168Z,19.60
2018-09-02T00:24:01.128Z,20.30
2018-09-02T00:25:01.026Z,21.70
2018-09-02T00:26:00.964Z,29.70
2018-09-02T00:27:00.902Z,26.80
2018-09-02T00:28:00.890Z,20.80
2018-09-02T00:29:00.775Z,23.70
2018-09-02T00:30:00.714Z,27.90
2018-09-02T00:31:00.651Z,20.90
2018-09-02T00:32:00.591Z,23.80
2018-09-02T00:33:00.561Z,23.10
2018-09-02T00:34:00.482Z,22.10
2018-09-02T00:35:00.417Z,21.10
2018-09-02T00:36:00.343Z,22.50
2018-09-02T00:37:00.276Z,20.10
2018-09-02T00:38:00.220Z,20.60
2018-09-02T00:39:00.154Z,22.80
2018-09-02T00:40:00.094Z,19.40
2018-09-02T00:41:00.031Z,21.70
2018-09-02T00:41:59.971Z,19.80
2018-09-02T00:42:59.906Z,23.30
2018-09-02T00:43:59.845Z,22.40
2018-09-02T00:44:59.783Z,23.20
2018-09-02T00:45:59.720Z,23.10
2018-09-02T00:46:59.657Z,21.80
2018-09-02T00:47:59.595Z,23.20
2018-09-02T00:48:59.534Z,22.20
2018-09-02T00:49:59.474Z,24.20
2018-09-02T00:50:59.410Z,21.80
2018-09-02T00:51:59.347Z,24.00
2018-09-02T00:52:59.285Z,22.80
2018-09-02T00:53:59.221Z,23.70
2018-09-02T00:54:59.159Z,23.10
2018-09-02T00:55:59.104Z,25.00
2018-09-02T00:56:59.035Z,25.50
2018-09-02T00:57:58.973Z,25.50
2018-09-02T00:58:58.912Z,24.60
2018-09-02T00:59:58.849Z,25.10
2018-09-02T01:00:58.789Z,23.70
2018-09-02T01:01:58.725Z,27.10
2018-09-02T01:02:58.662Z,23.40
2018-09-02T01:03:58.601Z,23.90
2018-09-02T01:04:58.536Z,22.80
2018-09-02T01:05:58.477Z,26.20
2018-09-02T01:06:58.414Z,22.10
2018-09-02T01:07:58.352Z,25.30
2018-09-02T01:08:58.290Z,23.00
2018-09-02T01:09:58.225Z,23.00
2018-09-02T01:10:58.164Z,24.10
2018-09-02T01:11:58.102Z,24.70
2018-09-02T01:12:58.041Z,24.10
2018-09-02T01:13:57.978Z,21.70
2018-09-02T01:14:57.913Z,26.00
2018-09-02T01:15:57.854Z,23.10
2018-09-02T01:16:57.792Z,22.00
2018-09-02T01:17:57.729Z,21.90
2018-09-02T01:18:57.668Z,23.80
2018-09-02T01:19:57.608Z,21.80
2018-09-02T01:20:57.542Z,23.80
2018-09-02T01:21:57.483Z,22.60
2018-09-02T01:22:57.479Z,21.80
2018-09-02T01:23:57.356Z,23.30
2018-09-02T01:24:57.306Z,21.80
2018-09-02T01:25:57.233Z,23.00
2018-09-02T01:26:57.172Z,23.80
2018-09-02T01:27:57.107Z,21.90
2018-09-02T01:28:57.047Z,24.00
2018-09-02T01:29:56.983Z,25.40
2018-09-02T01:30:56.922Z,25.40
2018-09-02T01:31:56.859Z,24.70
2018-09-02T01:32:56.797Z,22.00
2018-09-02T01:33:56.732Z,24.00
2018-09-02T01:34:56.673Z,23.20
2018-09-02T01:35:56.608Z,22.60
2018-09-02T01:36:56.546Z,25.60
2018-09-02T01:37:56.486Z,23.00
2018-09-02T01:38:56.421Z,23.80
2018-09-02T01:39:56.361Z,24.20
2018-09-02T01:40:56.304Z,20.60
2018-09-02T01:41:56.236Z,19.70
2018-09-02T01:42:56.177Z,22.40
2018-09-02T01:43:56.112Z,22.80
2018-09-02T01:44:56.051Z,24.00
2018-09-02T01:45:55.989Z,22.90
2018-09-02T01:46:55.928Z,21.50
2018-09-02T01:47:55.868Z,23.00
2018-09-02T01:48:55.803Z,24.30
2018-09-02T01:49:55.740Z,25.40
2018-09-02T01:50:55.677Z,21.90
2018-09-02T01:51:55.614Z,21.60
2018-09-02T01:52:55.552Z,22.00
2018-09-02T01:53:55.491Z,21.80
2018-09-02T01:54:55.432Z,23.80
2018-09-02T01:55:55.365Z,25.60
2018-09-02T01:56:55.304Z,22.70
2018-09-02T01:57:55.243Z,25.50
2018-09-02T01:58:55.179Z,26.40
2018-09-02T01:59:55.119Z,25.30
2018-09-02T02:00:55.056Z,24.20
2018-09-02T02:01:55.003Z,22.90
2018-09-02T02:02:54.930Z,22.20
2018-09-02T02:03:54.875Z,24.90
2018-09-02T02:04:54.806Z,22.60
2018-09-02T02:05:54.745Z,22.90
2018-09-02T02:06:54.682Z,22.10
2018-09-02T02:07:54.619Z,22.60
2018-09-02T02:08:54.558Z,24.10
2018-09-02T02:09:54.498Z,24.00
2018-09-02T02:10:54.433Z,23.10
2018-09-02T02:11:54.370Z,22.20
2018-09-02T02:12:54.311Z,22.50
2018-09-02T02:13:54.249Z,22.50
2018-09-02T02:14:54.188Z,20.10
2018-09-02T02:15:54.148Z,24.40
2018-09-02T02:16:54.063Z,21.20
2018-09-02T02:17:53.999Z,20.10
2018-09-02T02:18:53.935Z,22.00
2018-09-02T02:19:53.885Z,22.00
2018-09-02T02:20:53.811Z,21.50
2018-09-02T02:21:53.754Z,22.20
2018-09-02T02:22:53.688Z,19.60
2018-09-02T02:23:53.627Z,19.60
2018-09-02T02:24:53.561Z,18.60
2018-09-02T02:25:53.502Z,23.70
2018-09-02T02:26:53.443Z,21.40
2018-09-02T02:27:53.377Z,24.20
2018-09-02T02:28:53.316Z,22.20
2018-09-02T02:29:53.251Z,21.60
2018-09-02T02:30:53.191Z,21.40
2018-09-02T02:31:53.125Z,21.10
2018-09-02T02:32:53.067Z,21.60
2018-09-02T02:33:53.006Z,20.10
2018-09-02T02:34:52.943Z,23.70
2018-09-02T02:35:52.880Z,21.50
2018-09-02T02:36:52.824Z,19.40
2018-09-02T02:37:52.754Z,21.50
2018-09-02T02:38:52.694Z,21.10
2018-09-02T02:39:52.645Z,22.30
2018-09-02T02:40:52.567Z,20.20
2018-09-02T02:41:52.509Z,21.30
2018-09-02T02:42:52.447Z,19.80
2018-09-02T02:43:52.384Z,21.20
2018-09-02T02:44:52.322Z,19.80
2018-09-02T02:45:52.262Z,21.70
2018-09-02T02:46:52.201Z,20.90
2018-09-02T02:47:52.141Z,20.90
2018-09-02T02:48:52.077Z,21.90
2018-09-02T02:49:52.014Z,22.50
2018-09-02T02:50:51.951Z,21.70
2018-09-02T02:51:51.886Z,20.60
2018-09-02T02:52:51.823Z,20.30
2018-09-02T02:53:51.766Z,20.00
2018-09-02T02:54:51.701Z,20.10
2018-09-02T02:55:51.640Z,21.50
2018-09-02T02:56:51.576Z,19.90
2018-09-02T02:57:51.515Z,21.20
2018-09-02T02:58:51.453Z,21.00
2018-09-02T02:59:51.394Z,21.60
2018-09-02T03:00:51.329Z,22.70
2018-09-02T03:01:51.265Z,23.50
2018-09-02T03:02:51.205Z,22.50
2018-09-02T03:03:51.143Z,22.40
2018-09-02T03:04:51.082Z,23.00
2018-09-02T03:05:51.018Z,20.80
2018-09-02T03:06:50.956Z,21.20
2018-09-02T03:07:50.894Z,23.20
2018-09-02T03:08:50.890Z,23.40
2018-09-02T03:09:50.776Z,22.10
2018-09-02T03:10:50.774Z,21.80
2018-09-02T03:11:50.648Z,22.70
2018-09-02T03:12:50.585Z,25.40
2018-09-02T03:13:50.533Z,24.50
2018-09-02T03:14:50.464Z,23.60
2018-09-02T03:15:50.399Z,20.70
2018-09-02T03:16:50.338Z,23.60
2018-09-02T03:17:50.280Z,23.10
2018-09-02T03:18:50.213Z,21.60
2018-09-02T03:19:50.151Z,23.20
2018-09-02T03:20:50.090Z,20.40
2018-09-02T03:21:50.030Z,20.90
2018-09-02T03:22:49.968Z,20.80
2018-09-02T03:23:49.903Z,22.80
2018-09-02T03:24:49.841Z,23.50
2018-09-02T03:25:49.778Z,23.80
2018-09-02T03:26:49.717Z,22.40
2018-09-02T03:27:49.657Z,20.50
2018-09-02T03:28:49.595Z,21.60
2018-09-02T03:29:49.533Z,21.50
2018-09-02T03:30:49.470Z,20.60
2018-09-02T03:31:49.412Z,20.60
2018-09-02T03:32:49.345Z,21.50
2018-09-02T03:33:49.284Z,22.40
2018-09-02T03:34:49.220Z,21.30
2018-09-02T03:35:49.158Z,24.80
2018-09-02T03:36:49.097Z,22.50
2018-09-02T03:37:49.035Z,22.50
2018-09-02T03:38:48.975Z,23.60
2018-09-02T03:39:48.911Z,20.80
2018-09-02T03:40:48.849Z,21.70
2018-09-02T03:41:48.790Z,21.50
2018-09-02T03:42:48.768Z,24.70
2018-09-02T03:43:48.663Z,20.70
2018-09-02T03:44:48.603Z,20.40
2018-09-02T03:45:48.540Z,20.50
2018-09-02T03:46:48.478Z,20.80
2018-09-02T03:47:48.414Z,22.40
2018-09-02T03:48:48.352Z,21.00
2018-09-02T03:49:48.291Z,21.70
2018-09-02T03:50:48.226Z,21.60
2018-09-02T03:51:48.167Z,21.20
2018-09-02T03:52:48.105Z,21.30
2018-09-02T03:53:48.045Z,22.00
2018-09-02T03:54:47.983Z,21.40
2018-09-02T03:55:47.919Z,19.80
2018-09-02T03:56:47.854Z,22.00
2018-09-02T03:57:47.794Z,19.50
2018-09-02T03:58:47.732Z,21.30
2018-09-02T03:59:47.675Z,22.50
2018-09-02T04:00:47.637Z,21.60
2018-09-02T04:01:47.546Z,19.60
2018-09-02T04:02:47.485Z,21.10
2018-09-02T04:03:47.423Z,21.20
2018-09-02T04:04:47.362Z,22.10
2018-09-02T04:05:47.295Z,19.40
2018-09-02T04:06:47.237Z,18.60
2018-09-02T04:07:47.174Z,20.00
2018-09-02T04:08:47.115Z,20.40
2018-09-02T04:09:47.051Z,20.60
2018-09-02T04:10:46.987Z,21.90
2018-09-02T04:11:46.928Z,19.40
2018-09-02T04:12:46.865Z,19.70
2018-09-02T04:13:46.803Z,19.70
2018-09-02T04:14:46.744Z,18.70
2018-09-02T04:15:46.679Z,21.40
2018-09-02T04:16:46.622Z,19.90
2018-09-02T04:17:46.556Z,21.00
2018-09-02T04:18:46.492Z,19.60
2018-09-02T04:19:46.432Z,19.70
2018-09-02T04:20:46.370Z,24.60
2018-09-02T04:21:46.309Z,21.90
2018-09-02T04:22:46.246Z,20.90
2018-09-02T04:23:46.185Z,19.60
2018-09-02T04:24:46.120Z,19.90
2018-09-02T04:25:46.061Z,20.50
2018-09-02T04:26:45.997Z,19.90
2018-09-02T04:27:45.934Z,21.40
2018-09-02T04:28:45.878Z,21.30
2018-09-02T04:29:45.812Z,21.80
2018-09-02T04:30:45.749Z,21.10
2018-09-02T04:31:45.690Z,20.60
2018-09-02T04:32:45.625Z,19.70
2018-09-02T04:33:45.644Z,21.20
2018-09-02T04:34:45.504Z,18.30
2018-09-02T04:35:45.439Z,20.80
2018-09-02T04:36:45.379Z,21.50
2018-09-02T04:37:45.316Z,18.80
2018-09-02T04:38:45.255Z,22.30
2018-09-02T04:39:45.192Z,20.30
2018-09-02T04:40:45.129Z,23.20
2018-09-02T04:41:45.072Z,20.80
2018-09-02T04:42:45.007Z,22.30
2018-09-02T04:43:44.946Z,23.30
2018-09-02T04:44:44.881Z,21.50
2018-09-02T04:45:44.824Z,21.00
2018-09-02T04:46:44.759Z,22.90
2018-09-02T04:47:44.697Z,23.30
2018-09-02T04:48:44.635Z,25.80
2018-09-02T04:49:44.571Z,27.50
2018-09-02T04:50:44.510Z,24.30
2018-09-02T04:51:44.449Z,21.90
2018-09-02T04:52:44.387Z,22.30
2018-09-02T04:53:44.328Z,25.10
2018-09-02T04:54:44.332Z,23.10
2018-09-02T04:55:44.202Z,22.20
2018-09-02T04:56:44.138Z,25.90
2018-09-02T04:57:44.077Z,23.40
2018-09-02T04:58:44.016Z,21.50
2018-09-02T04:59:43.952Z,23.20
2018-09-02T05:00:43.892Z,23.70
2018-09-02T05:01:43.835Z,22.50
2018-09-02T05:02:43.768Z,24.50
2018-09-02T05:03:43.710Z,25.60
2018-09-02T05:04:43.643Z,26.70
2018-09-02T05:05:43.585Z,25.50
2018-09-02T05:06:43.519Z,26.20
2018-09-02T05:07:43.467Z,25.70
2018-09-02T05:08:43.395Z,23.00
2018-09-02T05:09:43.334Z,24.20
2018-09-02T05:10:43.272Z,24.50
2018-09-02T05:11:43.213Z,25.20
2018-09-02T05:12:43.151Z,23.10
2018-09-02T05:13:43.091Z,24.20
2018-09-02T05:14:43.024Z,24.70
2018-09-02T05:15:42.964Z,25.20
2018-09-02T05:16:42.902Z,23.00
2018-09-02T05:17:42.838Z,22.90
2018-09-02T05:18:42.778Z,24.10
2018-09-02T05:19:42.715Z,24.20
2018-09-02T05:20:42.654Z,23.00
2018-09-02T05:21:42.591Z,22.00
2018-09-02T05:22:42.529Z,22.30
2018-09-02T05:23:42.466Z,22.10
2018-09-02T05:24:42.406Z,19.80
2018-09-02T05:25:42.345Z,20.00
2018-09-02T05:26:42.281Z,19.30
2018-09-02T05:27:42.219Z,18.60
2018-09-02T05:28:42.158Z,18.20
2018-09-02T05:29:42.095Z,19.80
2018-09-02T05:30:42.033Z,18.00
2018-09-02T05:31:41.972Z,17.70
2018-09-02T05:32:41.909Z,17.70
2018-09-02T05:33:41.848Z,17.20
2018-09-02T05:34:41.785Z,15.60
2018-09-02T05:35:41.732Z,17.30
2018-09-02T05:36:41.662Z,16.90
2018-09-02T05:37:41.600Z,16.20
2018-09-02T05:38:41.540Z,17.00
2018-09-02T05:39:41.477Z,15.90
2018-09-02T05:40:41.416Z,16.60
2018-09-02T05:41:41.353Z,17.30
2018-09-02T05:42:41.294Z,19.80
2018-09-02T05:43:41.229Z,18.30
2018-09-02T05:44:41.169Z,17.10
2018-09-02T05:45:41.108Z,16.30
2018-09-02T05:46:41.041Z,17.60
2018-09-02T05:47:40.981Z,16.90
2018-09-02T05:48:40.922Z,16.30
2018-09-02T05:49:40.857Z,17.80
2018-09-02T05:50:40.798Z,17.00
2018-09-02T05:51:40.732Z,15.70
2018-09-02T05:52:40.672Z,15.40
2018-09-02T05:53:40.611Z,16.20
2018-09-02T05:54:40.547Z,13.70
2018-09-02T05:55:40.485Z,15.00
2018-09-02T05:56:40.421Z,14.50
2018-09-02T05:57:40.456Z,16.40
2018-09-02T05:58:40.301Z,14.60
2018-09-02T05:59:40.238Z,15.00
2018-09-02T06:00:40.175Z,14.60
2018-09-02T06:01:40.116Z,15.50
2018-09-02T06:02:40.114Z,15.50
2018-09-02T06:03:39.991Z,16.50
2018-09-02T06:04:39.932Z,16.40
2018-09-02T06:05:39.868Z,15.40
2018-09-02T06:06:39.804Z,16.20
2018-09-02T06:07:39.742Z,14.80
2018-09-02T06:08:39.683Z,15.30
2018-09-02T06:09:39.620Z,14.90
2018-09-02T06:10:39.559Z,14.70
2018-09-02T06:11:39.496Z,13.80
2018-09-02T06:12:39.441Z,14.00
2018-09-02T06:13:39.375Z,13.50
2018-09-02T06:14:39.310Z,14.50
2018-09-02T06:15:39.248Z,14.80
2018-09-02T06:16:39.185Z,14.60
2018-09-02T06:17:39.124Z,14.80
2018-09-02T06:18:39.061Z,13.10
2018-09-02T06:19:39.001Z,14.80
2018-09-02T06:20:38.940Z,13.50
2018-09-02T06:21:38.880Z,13.20
2018-09-02T06:22:38.816Z,13.70
2018-09-02T06:23:38.753Z,14.90
2018-09-02T06:24:38.692Z,14.60
2018-09-02T06:25:38.629Z,12.70
2018-09-02T06:26:38.567Z,13.50
2018-09-02T06:27:38.502Z,13.40
2018-09-02T06:28:38.446Z,14.10
2018-09-02T06:29:38.382Z,15.10
2018-09-02T06:30:38.318Z,14.30
2018-09-02T06:31:38.257Z,13.80
2018-09-02T06:32:38.198Z,15.10
2018-09-02T06:33:38.132Z,14.20
2018-09-02T06:34:38.072Z,14.10
2018-09-02T06:35:38.085Z,14.00
2018-09-02T06:36:37.948Z,13.20
2018-09-02T06:37:37.890Z,14.50
2018-09-02T06:38:37.827Z,13.40
2018-09-02T06:39:37.824Z,11.70
2018-09-02T06:40:37.703Z,11.60
2018-09-02T06:41:37.648Z,12.70
2018-09-02T06:42:37.583Z,11.30
2018-09-02T06:43:37.516Z,10.90
2018-09-02T06:44:37.455Z,10.40
2018-09-02T06:45:37.401Z,12.70
2018-09-02T06:46:37.330Z,12.60
2018-09-02T06:47:37.280Z,12.20
2018-09-02T06:48:37.207Z,10.40
2018-09-02T06:49:37.148Z,11.70
2018-09-02T06:50:37.084Z,11.60
2018-09-02T06:51:37.024Z,11.90
2018-09-02T06:52:37.071Z,12.20
2018-09-02T06:53:36.901Z,12.30
2018-09-02T06:54:36.839Z,12.90
2018-09-02T06:55:36.778Z,14.30
2018-09-02T06:56:36.721Z,12.80
2018-09-02T06:57:36.653Z,14.10
2018-09-02T06:58:36.677Z,12.00
2018-09-02T06:59:36.533Z,12.10
2018-09-02T07:00:36.467Z,12.50
2018-09-02T07:01:36.406Z,12.90
2018-09-02T07:02:36.380Z,15.10
2018-09-02T07:03:36.283Z,13.80
2018-09-02T07:04:36.222Z,13.30
2018-09-02T07:05:36.159Z,12.70
2018-09-02T07:06:36.187Z,13.80
2018-09-02T07:07:36.036Z,12.50
2018-09-02T07:08:35.981Z,11.60
2018-09-02T07:09:35.914Z,12.50
2018-09-02T07:10:35.851Z,13.20
2018-09-02T07:11:35.791Z,12.00
2018-09-02T07:12:35.726Z,10.60
2018-09-02T07:13:35.665Z,11.10
2018-09-02T07:14:35.606Z,11.30
2018-09-02T07:15:35.540Z,11.10
2018-09-02T07:16:35.479Z,11.60
2018-09-02T07:17:35.423Z,12.30
2018-09-02T07:18:35.354Z,14.20
2018-09-02T07:19:35.298Z,11.30
2018-09-02T07:20:35.234Z,11.90
2018-09-02T07:21:35.168Z,10.70
2018-09-02T07:22:35.111Z,10.90
2018-09-02T07:23:35.050Z,10.80
2018-09-02T07:24:34.993Z,11.70
2018-09-02T07:25:34.925Z,11.10
2018-09-02T07:26:34.877Z,11.10
2018-09-02T07:27:34.804Z,11.80
2018-09-02T07:28:34.745Z,12.00
2018-09-02T07:29:34.678Z,11.50
2018-09-02T07:30:34.617Z,10.70
2018-09-02T07:31:34.639Z,11.60
2018-09-02T07:32:34.499Z,11.40
2018-09-02T07:33:34.432Z,12.70
2018-09-02T07:34:34.370Z,12.90
2018-09-02T07:35:34.309Z,11.80
2018-09-02T07:36:34.244Z,12.50
2018-09-02T07:37:34.186Z,14.40
2018-09-02T07:38:34.152Z,12.70
2018-09-02T07:39:34.059Z,11.30
2018-09-02T07:40:33.998Z,14.20
2018-09-02T07:41:33.943Z,12.30
2018-09-02T07:42:33.873Z,13.60
2018-09-02T07:43:33.834Z,13.90
2018-09-02T07:44:33.753Z,13.00
2018-09-02T07:45:33.692Z,13.30
2018-09-02T07:46:33.629Z,13.10
2018-09-02T07:47:33.570Z,14.90
2018-09-02T07:48:33.508Z,14.10
2018-09-02T07:49:33.446Z,14.20
2018-09-02T07:50:33.385Z,15.00
2018-09-02T07:51:33.336Z,13.40
2018-09-02T07:52:33.261Z,15.00
2018-09-02T07:53:33.198Z,11.20
2018-09-02T07:54:33.199Z,12.70
2018-09-02T07:55:33.076Z,12.20
2018-09-02T07:56:33.013Z,13.40
2018-09-02T07:57:32.949Z,11.50
2018-09-02T07:58:32.887Z,11.80
2018-09-02T07:59:32.833Z,11.40
2018-09-02T08:00:32.767Z,11.20
2018-09-02T08:01:32.708Z,10.60
2018-09-02T08:02:32.702Z,11.00
2018-09-02T08:03:32.584Z,9.90
2018-09-02T08:04:32.523Z,10.50
2018-09-02T08:05:32.463Z,9.20
2018-09-02T08:06:32.398Z,8.80
2018-09-02T08:07:32.339Z,9.90
2018-09-02T08:08:32.276Z,9.20
2018-09-02T08:09:32.212Z,10.50
2018-09-02T08:10:32.156Z,9.30
2018-09-02T08:11:32.097Z,8.10
2018-09-02T08:12:32.042Z,8.70
2018-09-02T08:13:31.973Z,8.70
2018-09-02T08:14:31.911Z,8.70
2018-09-02T08:15:31.846Z,8.60
2018-09-02T08:16:31.787Z,8.30
2018-09-02T08:17:31.727Z,7.60
2018-09-02T08:18:31.663Z,7.30
2018-09-02T08:19:31.603Z,7.60
2018-09-02T08:20:31.544Z,7.90
2018-09-02T08:21:31.482Z,7.80
2018-09-02T08:22:31.419Z,7.50
2018-09-02T08:23:31.365Z,7.40
2018-09-02T08:24:31.298Z,7.50
2018-09-02T08:25:31.237Z,7.30
2018-09-02T08:26:31.234Z,7.10
2018-09-02T08:27:31.112Z,7.30
2018-09-02T08:28:31.060Z,6.80
2018-09-02T08:29:30.992Z,6.90
2018-09-02T08:30:30.928Z,6.80
2018-09-02T08:31:30.920Z,6.50
2018-09-02T08:32:30.807Z,7.00
2018-09-02T08:33:30.746Z,6.20
2018-09-02T08:34:30.685Z,6.40
2018-09-02T08:35:30.628Z,7.00
2018-09-02T08:36:30.581Z,7.00
2018-09-02T08:37:30.501Z,7.90
2018-09-02T08:38:30.444Z,7.60
2018-09-02T08:39:30.379Z,7.30
2018-09-02T08:40:30.322Z,7.80
2018-09-02T08:41:30.262Z,7.70
2018-09-02T08:42:30.191Z,8.00
2018-09-02T08:43:30.134Z,8.80
2018-09-02T08:44:30.072Z,8.50
2018-09-02T08:45:30.009Z,8.10
2018-09-02T08:46:29.949Z,8.20
2018-09-02T08:47:29.889Z,8.00
2018-09-02T08:48:29.831Z,7.70
2018-09-02T08:49:29.823Z,7.80
2018-09-02T08:50:29.794Z,9.00
2018-09-02T08:51:29.645Z,8.20
2018-09-02T08:52:29.588Z,8.50
2018-09-02T08:53:29.526Z,8.60
2018-09-02T08:54:29.461Z,8.70
2018-09-02T08:55:29.400Z,8.30
2018-09-02T08:56:29.343Z,8.60
2018-09-02T08:57:29.278Z,9.10
2018-09-02T08:58:29.220Z,8.50
2018-09-02T08:59:29.154Z,8.80
2018-09-02T09:00:29.096Z,8.60
2018-09-02T09:01:29.041Z,8.40
2018-09-02T09:02:28.972Z,8.40
2018-09-02T09:03:28.913Z,8.70
2018-09-02T09:04:28.851Z,9.00
2018-09-02T09:05:28.789Z,9.10
2018-09-02T09:06:28.728Z,8.90
2018-09-02T09:07:28.719Z,8.90
2018-09-02T09:08:28.719Z,8.30
2018-09-02T09:09:28.544Z,8.50
2018-09-02T09:10:28.482Z,8.80
2018-09-02T09:11:28.424Z,8.00
2018-09-02T09:12:28.361Z,8.10
2018-09-02T09:13:28.300Z,8.20
2018-09-02T09:14:28.237Z,8.00
2018-09-02T09:15:28.179Z,8.30
2018-09-02T09:16:28.174Z,8.60
2018-09-02T09:17:28.059Z,8.00
2018-09-02T09:18:27.994Z,8.30
2018-09-02T09:19:27.932Z,8.70
2018-09-02T09:20:27.873Z,8.40
2018-09-02T09:21:27.837Z,8.60
2018-09-02T09:22:27.764Z,8.40
2018-09-02T09:23:27.691Z,8.30
2018-09-02T09:24:27.626Z,9.00
2018-09-02T09:25:27.566Z,8.80
2018-09-02T09:26:27.506Z,8.50
2018-09-02T09:27:27.444Z,8.40
2018-09-02T09:28:27.384Z,8.20
2018-09-02T09:29:27.319Z,8.00
2018-09-02T09:30:27.259Z,8.50
2018-09-02T09:31:27.200Z,7.70
2018-09-02T09:32:27.139Z,8.60
2018-09-02T09:33:27.083Z,8.40
2018-09-02T09:34:27.016Z,8.60
2018-09-02T09:35:26.958Z,8.70
2018-09-02T09:36:26.895Z,8.60
2018-09-02T09:37:26.835Z,8.60
2018-09-02T09:38:26.771Z,8.40
2018-09-02T09:39:26.713Z,8.40
2018-09-02T09:40:26.653Z,9.00
2018-09-02T09:41:26.591Z,8.80
2018-09-02T09:42:26.532Z,9.20
2018-09-02T09:43:26.470Z,9.60
2018-09-02T09:44:26.408Z,10.00
2018-09-02T09:45:26.353Z,10.40
2018-09-02T09:46:26.287Z,10.20
2018-09-02T09:47:26.227Z,10.30
2018-09-02T09:48:26.167Z,10.10
2018-09-02T09:49:26.103Z,10.00
2018-09-02T09:50:26.045Z,9.30
2018-09-02T09:51:25.982Z,9.80
2018-09-02T09:52:25.921Z,9.50
2018-09-02T09:53:25.860Z,8.70
2018-09-02T09:54:25.799Z,9.10
2018-09-02T09:55:25.794Z,10.10
2018-09-02T09:56:25.679Z,9.80
2018-09-02T09:57:25.617Z,9.80
2018-09-02T09:58:25.553Z,9.40
2018-09-02T09:59:25.495Z,9.20
2018-09-02T10:00:25.433Z,9.00
2018-09-02T10:01:25.370Z,9.80
2018-09-02T10:02:25.315Z,9.30
2018-09-02T10:03:25.250Z,9.10
2018-09-02T10:04:25.190Z,9.30
2018-09-02T10:05:25.131Z,9.60
2018-09-02T10:06:25.067Z,9.50
2018-09-02T10:07:25.008Z,9.50
2018-09-02T10:08:24.948Z,9.70
2018-09-02T10:09:24.886Z,10.00
2018-09-02T10:10:24.841Z,10.00
2018-09-02T10:11:24.763Z,10.20
2018-09-02T10:12:24.703Z,10.10
2018-09-02T10:13:24.643Z,10.40
2018-09-02T10:14:24.585Z,10.60
2018-09-02T10:15:24.520Z,10.60
2018-09-02T10:16:24.460Z,11.10
2018-09-02T10:17:24.529Z,10.80
2018-09-02T10:18:24.340Z,10.80
2018-09-02T10:19:24.277Z,10.90
2018-09-02T10:20:24.217Z,10.90
2018-09-02T10:21:24.159Z,10.10
2018-09-02T10:22:24.094Z,10.30
2018-09-02T10:23:24.034Z,10.40
2018-09-02T10:24:23.973Z,10.00
2018-09-02T10:25:23.914Z,9.60
2018-09-02T10:26:23.852Z,9.60
2018-09-02T10:27:23.827Z,9.90
2018-09-02T10:28:23.730Z,9.70
2018-09-02T10:29:23.675Z,9.80
2018-09-02T10:30:23.612Z,9.10
2018-09-02T10:31:23.550Z,10.40
2018-09-02T10:32:23.490Z,10.40
2018-09-02T10:33:23.486Z,10.00
2018-09-02T10:34:23.369Z,10.50
2018-09-02T10:35:23.307Z,10.10
2018-09-02T10:36:23.245Z,10.50
2018-09-02T10:37:23.186Z,9.80
2018-09-02T10:38:23.124Z,10.70
2018-09-02T10:39:23.065Z,10.30
2018-09-02T10:40:23.003Z,10.50
2018-09-02T10:41:22.995Z,10.60
2018-09-02T10:42:22.880Z,10.90
2018-09-02T10:43:22.822Z,10.40
2018-09-02T10:44:22.760Z,9.80
2018-09-02T10:45:22.702Z,10.70
2018-09-02T10:46:22.640Z,11.10
2018-09-02T10:47:22.579Z,10.40
2018-09-02T10:48:22.519Z,10.90
2018-09-02T10:49:22.462Z,10.60
2018-09-02T10:50:22.397Z,10.00
2018-09-02T10:51:22.349Z,10.20
2018-09-02T10:52:22.276Z,10.50
2018-09-02T10:53:22.217Z,10.50
2018-09-02T10:54:22.152Z,10.30
2018-09-02T10:55:22.095Z,11.00
2018-09-02T10:56:22.033Z,10.40
2018-09-02T10:57:21.974Z,9.80
2018-09-02T10:58:21.911Z,10.10
2018-09-02T10:59:21.851Z,9.80
2018-09-02T11:00:21.788Z,10.40
2018-09-02T11:01:21.736Z,10.10
2018-09-02T11:02:21.670Z,10.50
2018-09-02T11:03:21.608Z,10.80
2018-09-02T11:04:21.548Z,10.80
2018-09-02T11:05:21.488Z,10.60
2018-09-02T11:06:21.427Z,10.80
2018-09-02T11:07:21.365Z,11.10
2018-09-02T11:08:21.308Z,11.30
2018-09-02T11:09:21.246Z,11.70
2018-09-02T11:10:21.184Z,11.20
2018-09-02T11:11:21.128Z,11.70
2018-09-02T11:12:21.067Z,11.00
2018-09-02T11:13:21.066Z,11.00
2018-09-02T11:14:20.942Z,11.30
2018-09-02T11:15:20.884Z,11.10
2018-09-02T11:16:20.822Z,10.90
2018-09-02T11:17:20.762Z,11.10
2018-09-02T11:18:20.700Z,11.20
2018-09-02T11:19:20.639Z,11.30
2018-09-02T11:20:20.578Z,11.70
2018-09-02T11:21:20.516Z,11.20
2018-09-02T11:22:20.456Z,11.60
2018-09-02T11:23:20.396Z,11.20
2018-09-02T11:24:20.336Z,10.90
2018-09-02T11:25:20.277Z,10.30
2018-09-02T11:26:20.215Z,10.90
2018-09-02T11:27:20.154Z,11.20
2018-09-02T11:28:20.094Z,11.20
2018-09-02T11:29:20.032Z,10.60
2018-09-02T11:30:19.970Z,10.70
2018-09-02T11:31:19.912Z,10.60
2018-09-02T11:32:19.853Z,10.10
2018-09-02T11:33:19.787Z,10.20
2018-09-02T11:34:19.732Z,10.90
2018-09-02T11:35:19.666Z,11.00
2018-09-02T11:36:19.608Z,10.90
2018-09-02T11:37:19.547Z,11.20
2018-09-02T11:38:19.493Z,11.60
2018-09-02T11:39:19.426Z,11.40
2018-09-02T11:40:19.366Z,11.80
2018-09-02T11:41:19.307Z,12.70
2018-09-02T11:42:19.244Z,11.90
2018-09-02T11:43:19.182Z,12.60
2018-09-02T11:44:19.123Z,11.10
2018-09-02T11:45:19.064Z,12.30
2018-09-02T11:46:19.003Z,12.00
2018-09-02T11:47:18.940Z,11.90
2018-09-02T11:48:18.881Z,11.60
2018-09-02T11:49:18.826Z,11.20
2018-09-02T11:50:18.759Z,12.10
2018-09-02T11:51:18.696Z,12.40
2018-09-02T11:52:18.636Z,11.40
2018-09-02T11:53:18.578Z,11.90
2018-09-02T11:54:18.517Z,12.60
2018-09-02T11:55:18.455Z,13.00
2018-09-02T11:56:18.393Z,13.60
2018-09-02T11:57:18.336Z,13.40
2018-09-02T11:58:18.272Z,13.70
2018-09-02T11:59:18.211Z,13.90
2018-09-02T12:00:18.152Z,15.10
2018-09-02T12:01:18.092Z,13.70
2018-09-02T12:02:18.030Z,14.80
2018-09-02T12:03:17.990Z,15.30
2018-09-02T12:04:17.908Z,15.20
2018-09-02T12:05:17.851Z,16.20
2018-09-02T12:06:17.788Z,15.40
2018-09-02T12:07:17.725Z,15.40
2018-09-02T12:08:17.665Z,15.20
2018-09-02T12:09:17.604Z,15.60
2018-09-02T12:10:17.545Z,15.90
2018-09-02T12:11:17.483Z,16.40
2018-09-02T12:12:17.422Z,15.70
2018-09-02T12:13:17.362Z,16.60
2018-09-02T12:14:17.301Z,16.30
2018-09-02T12:15:17.241Z,17.60
2018-09-02T12:16:17.179Z,16.80
2018-09-02T12:17:17.118Z,16.80
2018-09-02T12:18:17.056Z,16.60
2018-09-02T12:19:16.999Z,17.00
2018-09-02T12:20:16.950Z,16.10
2018-09-02T12:21:16.875Z,15.40
2018-09-02T12:22:16.814Z,14.90
2018-09-02T12:23:16.754Z,13.60
2018-09-02T12:24:16.694Z,13.00
2018-09-02T12:25:16.634Z,13.20
2018-09-02T12:26:16.572Z,13.20
2018-09-02T12:27:16.552Z,13.00
2018-09-02T12:28:16.451Z,13.10
2018-09-02T12:29:16.390Z,12.40
2018-09-02T12:30:16.328Z,12.90
2018-09-02T12:31:16.267Z,12.50
2018-09-02T12:32:16.211Z,13.00
2018-09-02T12:33:16.146Z,12.00
2018-09-02T12:34:16.093Z,12.50
2018-09-02T12:35:16.025Z,11.90
2018-09-02T12:36:15.964Z,12.30
2018-09-02T12:37:15.904Z,12.20
2018-09-02T12:38:15.847Z,10.90
2018-09-02T12:39:15.780Z,11.00
2018-09-02T12:40:15.726Z,11.60
2018-09-02T12:41:15.666Z,10.50
2018-09-02T12:42:15.630Z,10.30
2018-09-02T12:43:15.538Z,10.30
2018-09-02T12:44:15.484Z,10.20
2018-09-02T12:45:15.417Z,10.50
2018-09-02T12:46:15.356Z,9.70
2018-09-02T12:47:15.294Z,10.20
2018-09-02T12:48:15.318Z,10.10
2018-09-02T12:49:15.179Z,10.10
2018-09-02T12:50:15.113Z,10.10
2018-09-02T12:51:15.052Z,10.40
2018-09-02T12:52:14.993Z,10.50
2018-09-02T12:53:14.931Z,10.20
2018-09-02T12:54:14.888Z,11.60
2018-09-02T12:55:14.813Z,10.10